createdAt,value
2018-07-19T00:00:38.749Z,100714.97
2018-07-19T00:03:08.577Z,100717.12
2018-07-19T00:05:38.967Z,100716.76
2018-07-19T00:08:11.899Z,100719.75
2018-07-19T00:10:41.129Z,100719.67
2018-07-19T00:13:11.509Z,100719.27
2018-07-19T00:15:41.219Z,100718.11
2018-07-19T00:18:11.626Z,100717.75
2018-07-19T00:20:42.426Z,100720.61
2018-07-19T00:23:11.434Z,100722.57
2018-07-19T00:25:41.248Z,100717.23
2018-07-19T00:28:11.018Z,100716.89
2018-07-19T00:30:41.202Z,100717.66
2018-07-19T00:33:10.343Z,100712.70
2018-07-19T00:35:39.673Z,100710.95
2018-07-19T00:38:09.185Z,100714.70
2018-07-19T00:40:38.630Z,100716.11
2018-07-19T00:43:07.395Z,100716.46
2018-07-19T00:45:35.996Z,100716.94
2018-07-19T00:48:05.993Z,100714.69
2018-07-19T00:50:35.267Z,100712.91
2018-07-19T00:53:07.273Z,100712.26
2018-07-19T00:55:38.586Z,100709.38
2018-07-19T00:58:09.010Z,100706.28
2018-07-19T01:00:39.177Z,100714.43
2018-07-19T01:03:08.741Z,100706.63
2018-07-19T01:05:38.703Z,100707.32
2018-07-19T01:08:09.887Z,100712.44
2018-07-19T01:10:46.780Z,100709.11
2018-07-19T01:13:16.339Z,100699.88
2018-07-19T01:15:48.041Z,100701.72
2018-07-19T01:18:18.881Z,100705.77
2018-07-19T01:20:50.016Z,100704.14
2018-07-19T01:23:18.998Z,100702.77
2018-07-19T01:25:48.166Z,100705.09
2018-07-19T01:28:18.093Z,100706.04
2018-07-19T01:30:47.055Z,100704.27
2018-07-19T01:33:16.309Z,100705.70
2018-07-19T01:35:48.224Z,100699.98
2018-07-19T01:38:17.707Z,100713.33
2018-07-19T01:40:47.015Z,100710.52
2018-07-19T01:43:27.238Z,100710.11
2018-07-19T01:46:01.520Z,100712.11
2018-07-19T01:48:32.085Z,100709.03
2018-07-19T01:51:01.836Z,100709.77
2018-07-19T01:53:31.058Z,100708.13
2018-07-19T01:56:01.549Z,100709.39
2018-07-19T01:58:32.074Z,100711.66
2018-07-19T02:01:03.462Z,100716.10
2018-07-19T02:03:32.899Z,100715.48
2018-07-19T02:06:03.915Z,100719.84
2018-07-19T02:08:33.316Z,100719.78
2018-07-19T02:11:04.178Z,100714.31
2018-07-19T02:13:33.874Z,100719.61
2018-07-19T02:16:03.395Z,100720.98
2018-07-19T02:18:33.270Z,100718.33
2018-07-19T02:21:02.788Z,100720.19
2018-07-19T02:23:32.339Z,100716.00
2018-07-19T02:26:01.944Z,100723.94
2018-07-19T02:28:31.231Z,100721.69
2018-07-19T02:31:00.855Z,100722.78
2018-07-19T02:33:30.573Z,100718.98
2018-07-19T02:36:01.391Z,100720.09
2018-07-19T02:38:32.319Z,100715.95
2018-07-19T02:41:01.455Z,100722.37
2018-07-19T02:43:30.869Z,100718.41
2018-07-19T02:46:01.123Z,100720.81
2018-07-19T02:48:34.383Z,100719.57
2018-07-19T02:51:05.881Z,100717.75
2018-07-19T02:53:34.657Z,100718.56
2018-07-19T02:56:04.043Z,100718.87
2018-07-19T02:58:33.434Z,100726.61
2018-07-19T03:01:02.610Z,100722.81
2018-07-19T03:03:31.662Z,100728.88
2018-07-19T03:06:01.067Z,100729.55
2018-07-19T03:08:30.547Z,100722.63
2018-07-19T03:10:59.646Z,100723.38
2018-07-19T03:13:29.151Z,100721.91
2018-07-19T03:15:59.771Z,100723.69
2018-07-19T03:18:29.497Z,100725.73
2018-07-19T03:21:00.016Z,100721.23
2018-07-19T03:23:30.004Z,100723.14
2018-07-19T03:25:59.622Z,100721.98
2018-07-19T03:28:29.207Z,100724.83
2018-07-19T03:30:58.710Z,100732.22
2018-07-19T03:33:27.842Z,100728.73
2018-07-19T03:35:58.459Z,100734.00
2018-07-19T03:38:27.560Z,100740.80
2018-07-19T03:41:06.069Z,100733.90
2018-07-19T03:43:38.627Z,100739.73
2018-07-19T03:46:07.684Z,100734.69
2018-07-19T03:48:36.995Z,100741.08
2018-07-19T03:51:07.194Z,100746.66
2018-07-19T03:53:36.302Z,100741.25
2018-07-19T03:56:05.502Z,100751.52
2018-07-19T03:58:34.647Z,100748.91
2018-07-19T04:01:03.919Z,100747.72
2018-07-19T04:03:34.831Z,100749.99
2018-07-19T04:06:04.322Z,100753.23
2018-07-19T04:08:39.171Z,100755.55
2018-07-19T04:11:04.070Z,100761.01
2018-07-19T04:13:35.388Z,100757.97
2018-07-19T04:16:06.155Z,100760.95
2018-07-19T04:18:36.509Z,100763.98
2018-07-19T04:21:07.834Z,100764.69
2018-07-19T04:23:37.391Z,100767.06
2018-07-19T04:26:06.930Z,100763.39
2018-07-19T04:28:36.222Z,100766.16
2018-07-19T04:31:05.197Z,100776.19
2018-07-19T04:33:34.335Z,100770.45
2018-07-19T04:36:04.968Z,100776.34
2018-07-19T04:38:34.287Z,100779.33
2018-07-19T04:41:03.824Z,100782.69
2018-07-19T04:43:35.339Z,100781.62
2018-07-19T04:46:05.308Z,100778.53
2018-07-19T04:48:36.120Z,100775.79
2018-07-19T04:51:07.726Z,100779.06
2018-07-19T04:53:38.755Z,100780.61
2018-07-19T04:56:08.817Z,100778.97
2018-07-19T04:58:37.370Z,100787.72
2018-07-19T05:01:06.054Z,100785.55
2018-07-19T05:03:34.716Z,100787.86
2018-07-19T05:06:03.376Z,100789.03
2018-07-19T05:08:32.003Z,100788.77
2018-07-19T05:11:01.964Z,100781.75
2018-07-19T05:13:31.734Z,100784.43
2018-07-19T05:16:00.387Z,100787.36
2018-07-19T05:18:29.023Z,100787.02
2018-07-19T05:20:57.657Z,100781.45
2018-07-19T05:23:26.329Z,100779.49
2018-07-19T05:25:54.972Z,100776.97
2018-07-19T05:28:23.623Z,100781.65
2018-07-19T05:30:52.251Z,100777.98
2018-07-19T05:33:24.031Z,100776.33
2018-07-19T05:38:43.192Z,100778.30
2018-07-19T05:41:13.817Z,100782.45
2018-07-19T05:43:43.261Z,100782.13
2018-07-19T05:46:13.606Z,100779.23
2018-07-19T05:48:43.335Z,100783.64
2018-07-19T05:51:13.338Z,100784.53
2018-07-19T05:53:42.330Z,100779.05
2018-07-19T05:56:15.441Z,100779.47
2018-07-19T05:58:47.154Z,100782.87
2018-07-19T06:01:16.110Z,100781.38
2018-07-19T06:03:45.065Z,100778.95
2018-07-19T06:06:14.419Z,100783.42
2018-07-19T06:08:43.746Z,100786.33
2018-07-19T06:11:12.772Z,100779.66
2018-07-19T06:13:42.092Z,100775.47
2018-07-19T06:16:11.341Z,100775.13
2018-07-19T06:18:40.790Z,100770.08
2018-07-19T06:21:10.113Z,100777.17
2018-07-19T06:23:39.508Z,100774.80
2018-07-19T06:26:09.917Z,100772.80
2018-07-19T06:28:40.568Z,100776.91
2018-07-19T06:31:10.456Z,100769.83
2018-07-19T06:33:41.345Z,100766.28
2018-07-19T06:36:12.704Z,100769.31
2018-07-19T06:38:41.772Z,100772.75
2018-07-19T06:41:11.027Z,100775.77
2018-07-19T06:43:40.153Z,100770.20
2018-07-19T06:46:09.386Z,100778.00
2018-07-19T06:48:39.097Z,100770.30
2018-07-19T06:51:09.650Z,100773.53
2018-07-19T06:53:38.668Z,100769.86
2018-07-19T06:56:11.472Z,100773.63
2018-07-19T06:58:40.673Z,100768.25
2018-07-19T07:01:09.740Z,100766.08
2018-07-19T07:03:48.645Z,100771.29
2018-07-19T07:06:17.535Z,100771.06
2018-07-19T07:08:46.533Z,100767.71
2018-07-19T07:11:15.562Z,100765.91
2018-07-19T07:13:45.482Z,100764.70
2018-07-19T07:16:14.573Z,100771.34
2018-07-19T07:18:45.408Z,100764.56
2018-07-19T07:21:15.641Z,100766.30
2018-07-19T07:23:46.192Z,100763.31
2018-07-19T07:26:15.350Z,100764.34
2018-07-19T07:28:44.254Z,100768.42
2018-07-19T07:31:13.634Z,100762.72
2018-07-19T07:33:43.757Z,100759.55
2018-07-19T07:36:12.610Z,100768.45
2018-07-19T07:38:41.763Z,100766.62
2018-07-19T07:41:10.936Z,100763.59
2018-07-19T07:43:39.771Z,100764.73
2018-07-19T07:46:08.716Z,100762.76
2018-07-19T07:48:37.839Z,100764.28
2018-07-19T07:51:07.431Z,100763.77
2018-07-19T07:53:36.285Z,100755.86
2018-07-19T07:56:06.174Z,100763.00
2018-07-19T07:58:34.941Z,100762.83
2018-07-19T08:01:04.693Z,100765.73
2018-07-19T08:03:35.026Z,100762.15
2018-07-19T08:06:03.944Z,100764.91
2018-07-19T08:08:33.145Z,100762.44
2018-07-19T08:11:07.151Z,100772.00
2018-07-19T08:13:36.329Z,100770.34
2018-07-19T08:16:05.287Z,100767.53
2018-07-19T08:18:34.890Z,100759.27
2018-07-19T08:21:04.067Z,100767.47
2018-07-19T08:23:32.779Z,100757.31
2018-07-19T08:26:01.437Z,100757.55
2018-07-19T08:28:46.075Z,100761.30
2018-07-19T08:31:14.854Z,100758.85
2018-07-19T08:33:43.499Z,100765.09
2018-07-19T08:36:12.395Z,100763.16
2018-07-19T08:38:41.553Z,100763.38
2018-07-19T08:41:10.284Z,100764.79
2018-07-19T08:43:39.384Z,100763.13
2018-07-19T08:46:08.002Z,100757.52
2018-07-19T08:48:36.729Z,100754.62
2018-07-19T08:51:05.517Z,100763.94
2018-07-19T08:53:34.094Z,100759.86
2018-07-19T08:56:02.794Z,100763.11
2018-07-19T09:01:19.220Z,100755.11
2018-07-19T09:03:47.880Z,100765.33
2018-07-19T09:06:18.338Z,100761.17
2018-07-19T09:08:48.095Z,100750.97
2018-07-19T09:11:17.163Z,100757.36
2018-07-19T09:13:45.848Z,100758.48
2018-07-19T09:16:14.563Z,100758.22
2018-07-19T09:18:43.185Z,100754.69
2018-07-19T09:21:11.901Z,100757.41
2018-07-19T09:23:40.621Z,100756.21
2018-07-19T09:26:09.305Z,100755.41
2018-07-19T09:28:38.038Z,100755.53
2018-07-19T09:31:06.676Z,100755.45
2018-07-19T09:33:35.407Z,100753.33
2018-07-19T09:36:04.001Z,100761.75
2018-07-19T09:38:32.740Z,100759.91
2018-07-19T09:41:01.320Z,100748.20
2018-07-19T09:43:31.174Z,100746.00
2018-07-19T09:46:00.044Z,100750.58
2018-07-19T09:48:29.482Z,100748.98
2018-07-19T09:51:00.082Z,100749.04
2018-07-19T09:53:29.432Z,100747.88
2018-07-19T09:55:58.267Z,100753.50
2018-07-19T09:58:27.294Z,100752.92
2018-07-19T10:00:56.380Z,100761.45
2018-07-19T10:03:25.972Z,100762.49
2018-07-19T10:05:55.111Z,100755.32
2018-07-19T10:08:24.038Z,100748.94
2018-07-19T10:10:53.144Z,100755.13
2018-07-19T10:13:22.165Z,100752.77
2018-07-19T10:15:51.688Z,100753.27
2018-07-19T10:18:21.247Z,100757.22
2018-07-19T10:20:49.886Z,100755.74
2018-07-19T10:23:18.561Z,100750.17
2018-07-19T10:25:47.140Z,100753.17
2018-07-19T10:28:15.784Z,100746.63
2018-07-19T10:30:44.423Z,100746.47
2018-07-19T10:33:16.140Z,100745.77
2018-07-19T10:35:44.854Z,100750.23
2018-07-19T10:38:13.822Z,100752.14
2018-07-19T10:40:42.619Z,100741.59
2018-07-19T10:43:12.007Z,100741.54
2018-07-19T10:45:41.008Z,100743.28
2018-07-19T10:48:09.723Z,100740.16
2018-07-19T10:50:38.738Z,100739.65
2018-07-19T10:53:07.628Z,100732.55
2018-07-19T10:55:37.877Z,100726.80
2018-07-19T10:58:08.596Z,100731.95
2018-07-19T11:00:39.171Z,100731.02
2018-07-19T11:03:08.088Z,100728.48
2018-07-19T11:05:36.978Z,100731.63
2018-07-19T11:08:06.812Z,100735.76
2018-07-19T11:10:38.556Z,100725.58
2018-07-19T11:13:07.857Z,100725.79
2018-07-19T11:15:39.552Z,100726.58
2018-07-19T11:18:11.443Z,100722.25
2018-07-19T11:20:54.472Z,100727.34
2018-07-19T11:23:23.681Z,100717.69
2018-07-19T11:25:52.842Z,100719.02
2018-07-19T11:28:22.971Z,100718.57
2018-07-19T11:30:51.906Z,100727.73
2018-07-19T11:33:21.452Z,100721.81
2018-07-19T11:35:50.683Z,100728.47
2018-07-19T11:38:20.133Z,100720.95
2018-07-19T11:40:48.878Z,100711.56
2018-07-19T11:43:17.914Z,100711.34
2018-07-19T11:45:47.181Z,100710.80
2018-07-19T11:48:16.246Z,100702.27
2018-07-19T11:50:45.898Z,100710.60
2018-07-19T11:53:14.836Z,100716.50
2018-07-19T11:55:47.789Z,100705.78
2018-07-19T11:58:19.898Z,100706.20
2018-07-19T12:00:48.904Z,100701.18
2018-07-19T12:03:18.137Z,100701.16
2018-07-19T12:05:47.111Z,100701.31
2018-07-19T12:08:18.005Z,100693.70
2018-07-19T12:10:47.256Z,100696.15
2018-07-19T12:13:20.575Z,100700.91
2018-07-19T12:15:49.654Z,100700.83
2018-07-19T12:18:21.470Z,100691.41
2018-07-19T12:20:51.662Z,100692.72
2018-07-19T12:23:21.795Z,100684.23
2018-07-19T12:25:51.115Z,100686.62
2018-07-19T12:28:20.158Z,100681.56
2018-07-19T12:30:49.109Z,100676.98
2018-07-19T12:33:18.229Z,100681.42
2018-07-19T12:35:47.199Z,100682.47
2018-07-19T12:38:16.605Z,100689.16
2018-07-19T12:40:46.137Z,100676.60
2018-07-19T12:43:19.198Z,100675.48
2018-07-19T12:45:48.207Z,100667.88
2018-07-19T12:48:17.373Z,100671.58
2018-07-19T12:50:46.090Z,100676.52
2018-07-19T12:53:14.734Z,100666.97
2018-07-19T12:55:43.359Z,100664.91
2018-07-19T12:58:12.976Z,100670.69
2018-07-19T13:00:41.594Z,100676.92
2018-07-19T13:03:11.316Z,100671.44
2018-07-19T13:05:43.035Z,100671.22
2018-07-19T13:08:14.185Z,100675.97
2018-07-19T13:10:43.372Z,100664.53
2018-07-19T13:13:12.476Z,100667.17
2018-07-19T13:15:41.650Z,100651.48
2018-07-19T13:18:10.613Z,100659.62
2018-07-19T13:20:39.636Z,100661.34
2018-07-19T13:23:08.856Z,100668.20
2018-07-19T13:25:37.833Z,100666.94
2018-07-19T13:28:06.867Z,100663.80
2018-07-19T13:30:36.132Z,100661.10
2018-07-19T13:33:05.200Z,100658.98
2018-07-19T13:38:29.375Z,100644.37
2018-07-19T13:40:59.049Z,100641.72
2018-07-19T13:43:29.792Z,100649.12
2018-07-19T13:46:00.705Z,100641.81
2018-07-19T13:48:29.360Z,100643.45
2018-07-19T13:50:57.992Z,100636.23
2018-07-19T13:53:47.700Z,100636.23
2018-07-19T13:56:16.411Z,100630.91
2018-07-19T13:58:44.995Z,100638.66
2018-07-19T14:01:13.669Z,100629.08
2018-07-19T14:03:44.577Z,100632.79
2018-07-19T14:06:13.234Z,100632.52
2018-07-19T14:08:41.850Z,100626.86
2018-07-19T14:11:10.495Z,100636.75
2018-07-19T14:13:41.763Z,100623.70
2018-07-19T14:16:12.318Z,100620.52
2018-07-19T14:18:42.224Z,100617.81
2018-07-19T14:21:15.901Z,100617.80
2018-07-19T14:23:45.051Z,100618.23
2018-07-19T14:26:13.706Z,100627.19
2018-07-19T14:28:42.564Z,100625.54
2018-07-19T14:31:11.232Z,100623.31
2018-07-19T14:33:40.024Z,100619.92
2018-07-19T14:36:08.864Z,100615.16
2018-07-19T14:38:38.950Z,100615.38
2018-07-19T14:41:09.079Z,100611.42
2018-07-19T14:43:39.360Z,100610.65
2018-07-19T14:46:09.317Z,100602.21
2018-07-19T14:48:41.755Z,100601.73
2018-07-19T14:51:11.655Z,100604.27
2018-07-19T14:53:40.799Z,100598.47
2018-07-19T14:56:12.376Z,100595.11
2018-07-19T14:58:41.239Z,100595.52
2018-07-19T15:01:10.664Z,100591.20
2018-07-19T15:03:40.143Z,100589.05
2018-07-19T15:06:10.595Z,100587.67
2018-07-19T15:08:40.299Z,100590.07
2018-07-19T15:11:15.016Z,100586.05
2018-07-19T15:13:44.370Z,100583.26
2018-07-19T15:16:13.910Z,100579.64
2018-07-19T15:18:42.769Z,100570.86
2018-07-19T15:21:17.726Z,100570.89
2018-07-19T15:23:47.903Z,100567.11
2018-07-19T15:26:16.949Z,100565.00
2018-07-19T15:28:45.964Z,100558.41
2018-07-19T15:31:14.688Z,100562.16
2018-07-19T15:33:44.224Z,100565.87
2018-07-19T15:36:13.392Z,100564.53
2018-07-19T15:38:41.975Z,100566.44
2018-07-19T15:41:10.594Z,100555.38
2018-07-19T15:43:39.239Z,100554.75
2018-07-19T15:46:09.709Z,100555.42
2018-07-19T15:48:38.303Z,100556.99
2018-07-19T15:51:06.976Z,100558.67
2018-07-19T15:53:35.616Z,100561.10
2018-07-19T15:56:04.551Z,100554.54
2018-07-19T15:58:33.363Z,100549.94
2018-07-19T16:01:03.570Z,100552.58
2018-07-19T16:03:36.980Z,100545.93
2018-07-19T16:06:08.243Z,100549.15
2018-07-19T16:08:37.118Z,100542.16
2018-07-19T16:11:06.469Z,100539.66
2018-07-19T16:13:36.227Z,100544.94
2018-07-19T16:16:08.531Z,100542.44
2018-07-19T16:18:38.713Z,100535.39
2018-07-19T16:21:07.319Z,100535.91
2018-07-19T16:23:36.286Z,100536.81
2018-07-19T16:26:05.178Z,100540.02
2018-07-19T16:28:33.957Z,100533.59
2018-07-19T16:33:50.538Z,100529.86
2018-07-19T16:36:19.441Z,100534.05
2018-07-19T16:38:49.151Z,100530.41
2018-07-19T16:41:18.088Z,100537.03
2018-07-19T16:43:47.042Z,100535.38
2018-07-19T16:46:16.041Z,100529.34
2018-07-19T16:48:46.110Z,100531.12
2018-07-19T16:51:15.139Z,100524.00
2018-07-19T16:53:44.224Z,100527.25
2018-07-19T16:56:13.547Z,100531.03
2018-07-19T16:58:42.425Z,100525.41
2018-07-19T17:01:11.522Z,100527.48
2018-07-19T17:06:27.994Z,100525.80
2018-07-19T17:08:56.881Z,100517.67
2018-07-19T17:11:26.710Z,100516.80
2018-07-19T17:13:56.078Z,100518.34
2018-07-19T17:16:24.873Z,100522.13
2018-07-19T17:18:54.524Z,100523.59
2018-07-19T17:21:23.206Z,100523.72
2018-07-19T17:23:53.080Z,100521.81
2018-07-19T17:26:25.527Z,100526.81
2018-07-19T17:28:54.629Z,100525.11
2018-07-19T17:31:23.211Z,100516.62
2018-07-19T17:37:01.772Z,100520.03
2018-07-19T17:39:30.653Z,100519.02
2018-07-19T17:41:59.802Z,100523.92
2018-07-19T17:44:28.829Z,100526.20
2018-07-19T17:46:57.788Z,100528.11
2018-07-19T17:49:28.221Z,100533.41
2018-07-19T17:51:58.009Z,100532.27
2018-07-19T17:54:27.410Z,100527.97
2018-07-19T17:56:56.514Z,100534.47
2018-07-19T17:59:25.449Z,100534.66
2018-07-19T18:01:57.794Z,100534.75
2018-07-19T18:04:26.946Z,100542.84
2018-07-19T18:06:55.558Z,100538.38
2018-07-19T18:09:25.740Z,100539.00
2018-07-19T18:11:59.495Z,100536.95
2018-07-19T18:14:28.937Z,100536.67
2018-07-19T18:16:57.609Z,100540.84
2018-07-19T18:19:26.279Z,100542.64
2018-07-19T18:21:55.807Z,100538.02
2018-07-19T18:24:24.480Z,100543.97
2018-07-19T18:26:53.117Z,100541.45
2018-07-19T18:29:24.136Z,100548.21
2018-07-19T18:31:55.200Z,100545.41
2018-07-19T18:34:34.822Z,100548.20
2018-07-19T18:37:05.332Z,100547.38
2018-07-19T18:39:37.044Z,100554.86
2018-07-19T18:42:03.699Z,100555.22
2018-07-19T18:44:33.048Z,100561.52
2018-07-19T18:47:03.362Z,100557.12
2018-07-19T18:49:33.633Z,100559.44
2018-07-19T18:52:02.554Z,100564.47
2018-07-19T18:54:31.521Z,100560.66
2018-07-19T19:02:39.910Z,100566.09
2018-07-19T19:05:16.175Z,100566.11
2018-07-19T19:07:59.106Z,100565.89
2018-07-19T19:10:28.645Z,100568.36
2018-07-19T19:12:58.298Z,100571.85
2018-07-19T19:15:27.087Z,100575.04
2018-07-19T19:17:55.832Z,100583.94
2018-07-19T19:20:33.789Z,100577.25
2018-07-19T19:23:10.786Z,100581.09
2018-07-19T19:28:39.492Z,100588.79
2018-07-19T19:31:08.578Z,100587.91
2018-07-19T19:33:40.303Z,100586.18
2018-07-19T19:36:09.064Z,100589.20
2018-07-19T19:38:38.920Z,100587.64
2018-07-19T19:41:17.867Z,100585.80
2018-07-19T19:43:47.489Z,100591.68
2018-07-19T19:46:16.517Z,100595.08
2018-07-19T19:48:48.519Z,100592.02
2018-07-19T19:51:21.058Z,100600.10
2018-07-19T19:53:49.963Z,100593.52
2018-07-19T19:56:26.155Z,100593.81
2018-07-19T19:58:56.215Z,100594.20
2018-07-19T20:01:25.094Z,100594.50
2018-07-19T20:03:53.654Z,100593.78
2018-07-19T20:06:22.851Z,100595.75
2018-07-19T20:08:51.540Z,100591.91
2018-07-19T20:11:20.195Z,100596.98
2018-07-19T20:13:48.781Z,100601.30
2018-07-19T20:16:19.189Z,100598.50
2018-07-19T20:18:46.091Z,100600.29
2018-07-19T20:21:15.217Z,100597.23
2018-07-19T20:23:44.082Z,100597.22
2018-07-19T20:26:13.801Z,100602.95
2018-07-19T20:28:42.703Z,100609.58
2018-07-19T20:31:11.709Z,100609.02
2018-07-19T20:33:40.639Z,100611.03
2018-07-19T20:36:10.001Z,100611.22
2018-07-19T20:38:39.185Z,100618.03
2018-07-19T20:41:08.136Z,100613.33
2018-07-19T20:43:37.788Z,100612.09
2018-07-19T20:46:06.456Z,100613.07
2018-07-19T20:48:35.182Z,100612.48
2018-07-19T20:51:03.869Z,100616.22
2018-07-19T20:53:32.949Z,100612.71
2018-07-19T20:56:01.701Z,100618.67
2018-07-19T20:58:30.927Z,100619.73
2018-07-19T21:00:59.802Z,100616.47
2018-07-19T21:03:33.712Z,100618.56
2018-07-19T21:06:02.345Z,100613.70
2018-07-19T21:08:31.390Z,100620.45
2018-07-19T21:11:00.407Z,100612.62
2018-07-19T21:13:29.974Z,100624.30
2018-07-19T21:15:58.901Z,100626.15
2018-07-19T21:18:27.908Z,100616.94
2018-07-19T21:20:57.346Z,100620.95
2018-07-19T21:23:27.055Z,100621.73
2018-07-19T21:25:56.897Z,100618.27
2018-07-19T21:28:26.421Z,100633.75
2018-07-19T21:33:45.959Z,100631.52
2018-07-19T21:36:14.988Z,100629.83
2018-07-19T21:38:43.938Z,100633.05
2018-07-19T21:41:13.241Z,100631.75
2018-07-19T21:43:41.828Z,100630.28
2018-07-19T21:46:10.506Z,100631.89
2018-07-19T21:48:39.154Z,100633.26
2018-07-19T21:51:07.834Z,100629.77
2018-07-19T21:53:36.464Z,100628.55
2018-07-19T21:56:06.367Z,100624.61
2018-07-19T21:58:35.704Z,100629.72
2018-07-19T22:01:04.389Z,100629.24
2018-07-19T22:03:33.474Z,100630.58
2018-07-19T22:06:02.270Z,100632.22
2018-07-19T22:08:31.903Z,100634.56
2018-07-19T22:11:00.573Z,100638.96
2018-07-19T22:13:29.197Z,100635.56
2018-07-19T22:15:57.848Z,100637.83
2018-07-19T22:18:26.620Z,100633.86
2018-07-19T22:20:55.288Z,100637.17
2018-07-19T22:23:24.942Z,100641.69
2018-07-19T22:26:09.399Z,100645.36
2018-07-19T22:28:38.056Z,100639.80
2018-07-19T22:31:06.747Z,100639.17
2018-07-19T22:33:35.380Z,100639.00
2018-07-19T22:36:04.358Z,100639.73
2018-07-19T22:38:32.983Z,100648.83
2018-07-19T22:43:49.207Z,100648.31
2018-07-19T22:46:17.902Z,100646.30
2018-07-19T22:48:46.552Z,100646.06
2018-07-19T22:51:15.210Z,100645.75
2018-07-19T22:53:43.860Z,100644.80
2018-07-19T22:56:12.477Z,100653.87
2018-07-19T22:58:41.142Z,100649.36
2018-07-19T23:01:09.771Z,100652.22
2018-07-19T23:03:38.424Z,100651.97
2018-07-19T23:06:07.147Z,100649.41
2018-07-19T23:08:35.817Z,100648.75
2018-07-19T23:11:04.820Z,100656.17
2018-07-19T23:13:33.489Z,100653.45
2018-07-19T23:16:02.111Z,100655.39
2018-07-19T23:18:31.229Z,100666.41
2018-07-19T23:20:59.857Z,100662.17
2018-07-19T23:23:29.071Z,100656.98
2018-07-19T23:25:57.736Z,100652.69
2018-07-19T23:28:27.900Z,100651.53
2018-07-19T23:30:56.609Z,100658.54
2018-07-19T23:33:26.408Z,100661.84
2018-07-19T23:35:55.242Z,100662.30
2018-07-19T23:38:24.302Z,100666.08
2018-07-19T23:40:53.062Z,100657.75
2018-07-19T23:43:21.877Z,100667.56
2018-07-19T23:45:51.596Z,100669.84
2018-07-19T23:48:20.732Z,100669.65
2018-07-19T23:50:49.521Z,100669.86
2018-07-19T23:53:18.869Z,100675.93
2018-07-19T23:55:48.405Z,100671.55
2018-07-19T23:58:17.674Z,100669.77
